Time;durP1;ratioP1;P1;durP2;ratioP2;P2;SDS_P1;SDS_P2;PMS_P1;PMS_P2;Temp;Humidity;BMP_temperature;BMP_pressure;BME280_temperature;BME280_humidity;BME280_pressure;Samples;Min_cycle;Max_cycle;Signal;HPM_P1;HPM_P2
2021/07/14 00:53:37;;;;;;;0.40;0.40;;;;;;;20.98;67.16;101299.94;4913982;23;20065;-94
2021/07/14 08:24:54;;;;;;;1.05;1.05;;;;;;;21.55;63.42;101309.28;5166152;23;19932;-95
2021/07/14 08:34:11;;;;;;;1.13;0.40;;;;;;;21.85;62.88;101319.22;4826606;29;20068;-96
2021/07/14 08:36:37;;;;;;;0.10;0.10;;;;;;;21.83;62.98;101321.13;4826929;29;20460;-84
2021/07/14 08:39:03;;;;;;;1.85;0.32;;;;;;;21.56;63.68;101318.25;4850368;29;20042;-86
2021/07/14 08:41:31;;;;;;;0.17;0.17;;;;;;;21.79;63.29;101324.97;4841275;29;20050;-86
2021/07/14 08:44:00;;;;;;;0.10;0.10;;;;;;;21.58;63.50;101325.31;4836137;29;20116;-85
2021/07/14 08:46:28;;;;;;;1.17;1.15;;;;;;;21.70;63.26;101321.00;4837199;29;20030;-85
2021/07/14 08:48:56;;;;;;;0.10;0.10;;;;;;;21.79;63.04;101317.78;4839305;29;20083;-86
2021/07/14 08:51:23;;;;;;;0.10;0.10;;;;;;;22.00;62.78;101321.97;4841811;29;20026;-87
2021/07/14 08:53:52;;;;;;;1.88;1.00;;;;;;;22.10;62.54;101326.69;4841645;29;20083;-91
2021/07/14 08:56:18;;;;;;;0.25;0.25;;;;;;;22.16;62.45;101324.56;4838496;29;20042;-88
2021/07/14 08:58:45;;;;;;;0.10;0.10;;;;;;;22.35;61.99;101321.63;4830495;29;20035;-88
2021/07/14 09:01:11;;;;;;;0.98;0.73;;;;;;;22.03;62.69;101332.56;4833678;29;20530;-86
2021/07/14 09:03:38;;;;;;;1.85;1.75;;;;;;;21.77;63.41;101321.50;4836194;29;20086;-88
2021/07/14 09:06:04;;;;;;;0.13;0.13;;;;;;;21.80;63.44;101326.72;4829535;29;20037;-85
2021/07/14 09:08:30;;;;;;;0.00;0.00;;;;;;;22.06;62.74;101325.16;4826573;29;20027;-86
2021/07/14 09:10:56;;;;;;;0.32;0.32;;;;;;;22.05;62.88;101322.56;4830188;29;20034;-88
2021/07/14 09:13:33;;;;;;;1.10;1.00;;;;;;;22.09;62.97;101316.00;4829671;29;20053;-88
2021/07/14 09:15:59;;;;;;;0.38;0.38;;;;;;;22.07;62.80;101316.09;4830521;29;20110;-88
2021/07/14 09:18:28;;;;;;;0.75;0.75;;;;;;;22.22;62.63;101308.88;4832638;29;20038;-87
2021/07/14 09:20:54;;;;;;;3.40;1.55;;;;;;;22.28;62.37;101310.31;4831716;29;20367;-87
2021/07/14 09:23:25;;;;;;;0.47;0.47;;;;;;;22.32;62.44;101303.78;4829289;29;20069;-86
2021/07/14 09:26:03;;;;;;;0.20;0.20;;;;;;;22.23;62.63;101305.22;4835171;29;20030;-90
2021/07/14 09:28:33;;;;;;;0.17;0.17;;;;;;;22.28;61.92;101313.00;4833786;29;20435;-87
2021/07/14 09:31:10;;;;;;;2.22;1.90;;;;;;;22.43;62.01;101305.81;4837002;29;20042;-88
2021/07/14 09:33:42;;;;;;;0.15;0.15;;;;;;;22.68;61.54;101307.88;4839185;29;20049;-83
2021/07/14 09:36:08;;;;;;;0.75;0.65;;;;;;;22.42;61.03;101310.38;4841061;29;20062;-86
2021/07/14 09:38:38;;;;;;;0.15;0.15;;;;;;;22.53;61.28;101304.31;4840562;29;20034;-86
2021/07/14 09:41:07;;;;;;;0.20;0.15;;;;;;;22.81;60.81;101299.81;4837609;29;20030;-87
2021/07/14 09:43:36;;;;;;;0.35;0.35;;;;;;;22.87;60.40;101302.13;4838928;29;20044;-86
2021/07/14 09:46:07;;;;;;;1.25;0.70;;;;;;;22.88;60.20;101300.28;4840098;29;20068;-88
2021/07/14 09:48:38;;;;;;;0.13;0.13;;;;;;;22.84;59.87;101306.88;4835561;29;20701;-88
2021/07/14 09:53:46;;;;;;;0.10;0.10;;;;;;;22.89;60.46;101300.22;5052381;28;20497;-87
2021/07/14 09:56:20;;;;;;;0.28;0.28;;;;;;;22.82;59.66;101315.06;5048914;28;20021;-85
2021/07/14 09:58:47;;;;;;;0.40;0.40;;;;;;;22.76;59.93;101313.63;5049240;28;20025;-86
2021/07/14 10:01:16;;;;;;;0.65;0.65;;;;;;;22.67;60.09;101316.94;5048784;28;20100;-88
2021/07/14 10:03:51;;;;;;;0.10;0.10;;;;;;;22.96;59.54;101307.91;5048299;28;20116;-86
2021/07/14 10:06:24;;;;;;;2.72;1.50;;;;;;;23.01;59.59;101309.34;5050075;28;20025;-86
2021/07/14 10:08:51;;;;;;;0.10;0.10;;;;;;;23.10;58.89;101318.69;5049256;28;20033;-85
2021/07/14 10:11:20;;;;;;;0.43;0.43;;;;;;;23.20;58.78;101316.28;5048894;28;20472;-85
2021/07/14 10:14:00;;;;;;;0.20;0.20;;;;;;;23.45;58.57;101322.75;5047698;28;20029;-85
2021/07/14 10:16:30;;;;;;;0.00;0.00;;;;;;;23.23;58.80;101322.34;5048101;28;20021;-89
2021/07/14 10:21:39;;;;;;;0.77;0.77;;;;;;;23.19;58.41;101317.22;5080165;28;20451;-87
2021/07/14 10:24:07;;;;;;;0.57;0.57;;;;;;;23.19;58.28;101314.53;5054045;28;20387;-87
2021/07/14 10:26:35;;;;;;;0.10;0.10;;;;;;;23.23;58.52;101318.78;5065597;28;20100;-86
2021/07/14 10:29:03;;;;;;;0.30;0.30;;;;;;;23.33;58.36;101313.59;5053365;28;20025;-88
2021/07/14 10:31:31;;;;;;;1.38;1.27;;;;;;;23.30;58.54;101319.25;5049193;28;20029;-86
2021/07/14 10:33:57;;;;;;;0.10;0.10;;;;;;;23.45;58.21;101323.59;5049219;28;20056;-86
2021/07/14 10:36:27;;;;;;;0.10;0.10;;;;;;;23.51;57.55;101312.38;5049594;28;20370;-87
2021/07/14 10:38:58;;;;;;;0.20;0.20;;;;;;;23.90;56.88;101310.66;5049380;28;20136;-86
2021/07/14 10:41:27;;;;;;;0.35;0.35;;;;;;;24.18;56.22;101311.44;5049243;28;20032;-86
2021/07/14 10:43:55;;;;;;;0.20;0.20;;;;;;;24.35;56.38;101317.50;5049270;28;20116;-88
2021/07/14 10:46:25;;;;;;;0.63;0.57;;;;;;;24.30;55.70;101322.38;5048830;28;20028;-86
2021/07/14 10:48:53;;;;;;;0.13;0.13;;;;;;;23.98;55.99;101315.56;5047665;28;20025;-85
2021/07/14 10:51:20;;;;;;;0.10;0.10;;;;;;;23.81;56.52;101319.38;5048813;28;20476;-86
2021/07/14 10:53:52;;;;;;;0.32;0.32;;;;;;;24.05;56.47;101315.97;5049126;28;20037;-86
2021/07/14 10:56:21;;;;;;;0.45;0.40;;;;;;;23.77;56.82;101312.47;5049451;28;20025;-84
2021/07/14 10:58:51;;;;;;;0.28;0.28;;;;;;;24.21;55.82;101304.94;5045784;28;20029;-85
2021/07/14 11:01:40;;;;;;;0.40;0.17;;;;;;;24.38;55.75;101322.72;5047287;28;20044;-87
2021/07/14 11:07:08;;;;;;;0.65;0.65;;;;;;;24.26;55.79;101324.44;5065718;28;20391;-86
2021/07/14 11:09:43;;;;;;;0.57;0.55;;;;;;;24.07;56.15;101324.88;5053810;28;20033;-85
2021/07/14 11:12:26;;;;;;;0.20;0.20;;;;;;;23.93;56.82;101323.13;5047793;28;20468;-86
2021/07/14 11:14:58;;;;;;;0.10;0.10;;;;;;;23.57;57.52;101327.34;5048053;28;20037;-85
2021/07/14 11:17:28;;;;;;;;;;;;;;;23.82;57.13;101321.13;5049465;28;20063;-86
2021/07/14 11:19:57;;;;;;;1.60;1.02;;;;;;;23.48;57.90;101323.41;5048441;28;20387;-87
2021/07/14 11:22:45;;;;;;;0.20;0.20;;;;;;;23.58;57.83;101321.81;5049150;28;20033;-86
2021/07/14 11:25:24;;;;;;;0.47;0.47;;;;;;;23.65;57.63;101326.81;5060537;28;20403;-88
2021/07/14 11:30:43;;;;;;;1.20;0.85;;;;;;;23.26;58.52;101316.75;5069327;28;20519;-86
2021/07/14 11:33:18;;;;;;;0.10;0.10;;;;;;;23.02;59.23;101323.72;5068754;28;20421;-87
2021/07/14 11:38:53;;;;;;;0.20;0.20;;;;;;;23.24;58.66;101307.88;5124353;27;20383;-88
2021/07/14 11:41:32;;;;;;;0.17;0.17;;;;;;;23.05;59.19;101318.13;5108470;28;20391;-88
2021/07/14 11:43:58;;;;;;;0.10;0.10;;;;;;;23.18;58.92;101312.78;5109398;28;20020;-88
2021/07/14 11:46:29;;;;;;;0.15;0.15;;;;;;;23.16;59.08;101314.75;5109002;28;20427;-88
2021/07/14 11:49:10;;;;;;;0.10;0.10;;;;;;;23.27;58.74;101315.75;5109842;28;20020;-85
2021/07/14 11:51:39;;;;;;;0.20;0.20;;;;;;;23.19;59.16;101312.72;5108358;28;20020;-88
2021/07/14 11:54:26;;;;;;;0.30;0.30;;;;;;;23.24;59.02;101318.69;5109979;28;20038;-88
2021/07/14 11:56:52;;;;;;;1.23;1.13;;;;;;;23.19;59.38;101320.81;5109311;28;20126;-88
2021/07/14 11:59:28;;;;;;;0.88;0.88;;;;;;;23.23;59.11;101316.94;5110069;28;20131;-88
2021/07/14 12:02:02;;;;;;;0.20;0.20;;;;;;;23.33;59.24;101316.31;5109835;28;20077;-88
2021/07/14 12:04:34;;;;;;;0.10;0.10;;;;;;;23.34;58.86;101312.66;5109599;28;20016;-88
2021/07/14 12:07:12;;;;;;;0.10;0.10;;;;;;;23.40;58.48;101301.41;5109557;28;20032;-88
2021/07/14 12:09:43;;;;;;;0.05;0.05;;;;;;;23.36;58.56;101305.31;5109316;28;20046;-88
2021/07/14 12:12:32;;;;;;;0.65;0.65;;;;;;;23.42;58.61;101313.00;5110221;28;20027;-88
2021/07/14 12:14:58;;;;;;;0.47;0.47;;;;;;;23.34;58.66;101299.13;5094230;28;20027;-88
2021/07/14 12:17:26;;;;;;;0.68;0.68;;;;;;;23.50;58.66;101304.38;5109579;28;20102;-82
2021/07/14 12:19:58;;;;;;;16.27;1.17;;;;;;;23.36;58.74;101308.00;5109206;28;20046;-89
2021/07/14 12:22:30;;;;;;;;;;;;;;;23.19;58.76;101307.31;5108792;28;20024;-89
2021/07/14 12:26:02;;;;;;;;;;;;;;;;;;;;;
2021/07/14 12:28:26;;;;;;;0.40;0.40;;;;;;;23.08;59.43;101299.00;5054536;28;20548;-90
2021/07/14 12:30:52;;;;;;;0.65;0.65;;;;;;;23.07;59.69;101314.34;5108160;28;20024;-89
2021/07/14 12:33:20;;;;;;;0.20;0.20;;;;;;;22.94;59.91;101299.88;5108424;28;20059;-88
2021/07/14 12:35:47;;;;;;;0.13;0.13;;;;;;;22.89;60.46;101307.44;5107975;28;20020;-88
2021/07/14 12:38:15;;;;;;;3.47;1.15;;;;;;;23.00;60.25;101295.94;5098666;28;20064;-88
2021/07/14 12:43:22;;;;;;;0.55;0.55;;;;;;;23.40;59.40;101287.91;5079768;27;20423;-87
2021/07/14 12:45:53;;;;;;;0.30;0.30;;;;;;;23.68;58.88;101288.75;5068346;28;20033;-90
2021/07/14 12:48:23;;;;;;;0.65;0.65;;;;;;;23.54;58.36;101290.56;5068436;28;20037;-88
2021/07/14 12:50:52;;;;;;;0.55;0.55;;;;;;;23.99;57.56;101294.75;5063501;28;20029;-89
2021/07/14 12:53:20;;;;;;;0.28;0.28;;;;;;;24.34;57.03;101289.56;5066429;28;20043;-89
2021/07/14 12:55:47;;;;;;;0.47;0.47;;;;;;;24.32;56.92;101282.53;5054918;28;20371;-88
2021/07/14 13:01:01;;;;;;;0.93;0.93;;;;;;;24.28;56.10;101283.75;5076989;27;20904;-87
2021/07/14 13:03:30;;;;;;;0.20;0.20;;;;;;;24.05;56.45;101302.44;5057574;28;20029;-88
2021/07/14 13:06:41;;;;;;;0.52;0.52;;;;;;;24.25;56.51;101301.06;5068180;28;20519;-90
2021/07/14 13:08:58;;;;;;;0.60;0.60;;;;;;;24.11;57.07;101299.31;5051690;28;20048;-89
2021/07/14 13:11:24;;;;;;;0.10;0.10;;;;;;;24.00;56.59;101300.09;5048105;28;20494;-89
2021/07/14 13:13:51;;;;;;;1.45;1.35;;;;;;;23.87;57.23;101308.13;5048372;28;20112;-89
2021/07/14 13:16:26;;;;;;;0.30;0.30;;;;;;;23.82;57.21;101307.59;5045305;28;20040;-89
2021/07/14 13:18:54;;;;;;;0.40;0.40;;;;;;;23.87;57.01;101302.72;5048028;28;20029;-89
2021/07/14 13:21:23;;;;;;;1.40;1.30;;;;;;;23.87;57.72;101300.03;5045339;28;20025;-89
2021/07/14 13:24:01;;;;;;;0.30;0.30;;;;;;;23.72;57.81;101295.69;5045303;28;20035;-89
2021/07/14 13:26:27;;;;;;;0.10;0.10;;;;;;;24.00;57.38;101299.19;5036789;28;20056;-87
2021/07/14 13:28:53;;;;;;;0.55;0.55;;;;;;;23.86;57.56;101297.44;5043230;28;20486;-88
2021/07/14 13:31:25;;;;;;;0.10;0.10;;;;;;;23.83;57.56;101295.81;5045134;28;20373;-86
2021/07/14 13:34:05;;;;;;;0.10;0.10;;;;;;;23.86;57.39;101301.03;5047542;28;20037;-86
2021/07/14 13:36:36;;;;;;;0.65;0.65;;;;;;;23.77;57.27;101285.41;5047819;28;20048;-86
2021/07/14 13:39:19;;;;;;;0.38;0.38;;;;;;;23.92;57.34;101298.88;5047320;28;20052;-88
2021/07/14 13:41:47;;;;;;;2.10;1.17;;;;;;;23.49;58.05;101298.13;5044886;28;20033;-89
2021/07/14 13:44:26;;;;;;;0.73;0.73;;;;;;;23.57;58.06;101278.66;5047239;28;20125;-87
2021/07/14 13:46:55;;;;;;;0.15;0.15;;;;;;;23.39;58.56;101280.75;5047836;28;20051;-88
2021/07/14 13:49:26;;;;;;;0.20;0.20;;;;;;;23.27;58.89;101285.16;5047366;28;20025;-88
2021/07/14 13:51:58;;;;;;;0.07;0.07;;;;;;;23.46;59.22;101292.03;5047890;28;20052;-88
2021/07/14 13:59:50;;;;;;;1.00;1.00;;;;;;;23.14;59.31;101276.97;5052139;28;20417;-90
2021/07/14 14:02:21;;;;;;;0.28;0.25;;;;;;;23.12;59.48;101270.81;5048510;28;20040;-89
2021/07/14 14:07:34;;;;;;;0.85;0.85;;;;;;;23.20;59.41;101271.22;5080996;27;20398;-87
2021/07/14 14:10:07;;;;;;;0.10;0.10;;;;;;;23.13;59.67;101283.34;5058703;28;20373;-85
2021/07/14 14:15:24;;;;;;;0.52;0.52;;;;;;;23.43;58.90;101276.91;5066376;27;20447;-91
2021/07/14 14:17:53;;;;;;;0.45;0.45;;;;;;;23.12;59.27;101278.91;5054991;28;20033;-88
2021/07/14 14:20:26;;;;;;;0.40;0.40;;;;;;;23.29;59.01;101306.69;5027433;28;20028;-89
2021/07/14 14:22:52;;;;;;;12.43;0.88;;;;;;;23.05;59.63;101283.88;5035912;28;20030;-88
2021/07/14 14:25:24;;;;;;;0.55;0.55;;;;;;;23.06;59.73;101280.16;5042298;28;20424;-88
2021/07/14 14:30:36;;;;;;;0.35;0.35;;;;;;;22.99;60.03;101284.28;5072732;27;20423;-88
2021/07/14 14:33:05;;;;;;;1.63;1.55;;;;;;;22.86;60.54;101278.78;5068485;28;20083;-90
2021/07/14 14:35:37;;;;;;;1.63;1.05;;;;;;;22.80;60.57;101276.47;5068302;28;20484;-90
2021/07/14 14:38:08;;;;;;;0.20;0.20;;;;;;;22.89;60.68;101275.00;5067213;28;20028;-89
2021/07/14 14:40:35;;;;;;;1.35;1.27;;;;;;;22.92;60.52;101267.56;5047949;28;20033;-89
2021/07/14 14:43:02;;;;;;;1.00;1.00;;;;;;;22.71;60.98;101286.03;5048363;28;20025;-89
2021/07/14 14:45:28;;;;;;;0.90;0.80;;;;;;;22.56;61.16;101279.78;5048497;28;20022;-89
2021/07/14 14:47:56;;;;;;;0.47;0.47;;;;;;;22.54;61.48;101270.06;5048084;28;20068;-89
2021/07/14 14:50:23;;;;;;;1.17;0.45;;;;;;;22.67;61.24;101278.22;5048533;28;20025;-89
2021/07/14 14:52:52;;;;;;;2.20;0.65;;;;;;;22.52;61.61;101277.38;5048141;28;20376;-89
2021/07/14 14:55:19;;;;;;;0.38;0.38;;;;;;;22.49;61.76;101281.13;5048256;28;20044;-89
2021/07/14 14:57:48;;;;;;;1.38;1.10;;;;;;;22.40;62.07;101276.34;5047934;28;20025;-89
2021/07/14 15:00:17;;;;;;;0.28;0.28;;;;;;;22.32;62.65;101284.00;5048272;28;20052;-89
2021/07/14 15:02:47;;;;;;;0.17;0.17;;;;;;;22.59;61.83;101287.72;5048308;28;20021;-90
2021/07/14 15:05:15;;;;;;;0.30;0.30;;;;;;;22.52;62.13;101291.75;5047944;28;20029;-89
2021/07/14 15:07:41;;;;;;;0.10;0.10;;;;;;;22.58;61.92;101287.78;5048420;28;20030;-89
2021/07/14 15:10:08;;;;;;;0.22;0.22;;;;;;;22.56;62.01;101293.28;5047300;28;20025;-89
2021/07/14 15:12:34;;;;;;;0.77;0.77;;;;;;;22.68;61.77;101293.47;5048058;28;20022;-90
2021/07/14 15:15:00;;;;;;;0.98;0.98;;;;;;;22.61;61.81;101280.34;5047845;28;20025;-89
2021/07/14 15:17:28;;;;;;;0.10;0.10;;;;;;;22.66;61.84;101284.63;5048461;28;20036;-89
2021/07/14 15:19:54;;;;;;;0.45;0.45;;;;;;;22.79;61.52;101282.84;5047823;28;20044;-89
2021/07/14 15:22:23;;;;;;;0.15;0.15;;;;;;;22.61;61.83;101280.34;5047970;28;20070;-89
2021/07/14 15:24:54;;;;;;;0.68;0.68;;;;;;;22.80;61.47;101272.91;5047656;28;20036;-87
2021/07/14 15:30:11;;;;;;;2.85;1.80;;;;;;;22.40;62.52;101279.03;5046607;28;20052;-88
2021/07/14 15:32:37;;;;;;;0.98;0.98;;;;;;;22.23;62.97;101269.25;5046399;28;20036;-88
2021/07/14 15:35:04;;;;;;;0.98;0.98;;;;;;;22.25;63.10;101278.13;5044068;28;20037;-89
2021/07/14 15:37:36;;;;;;;0.30;0.30;;;;;;;22.27;62.82;101268.97;5045779;28;20052;-89
2021/07/14 15:40:02;;;;;;;2.72;1.20;;;;;;;22.24;63.16;101279.09;5042690;28;20045;-88
2021/07/14 15:42:28;;;;;;;1.35;1.30;;;;;;;22.16;63.22;101278.69;5033439;28;20064;-88
2021/07/14 15:45:03;;;;;;;0.65;0.65;;;;;;;22.13;63.50;101271.66;5033079;28;20531;-89
2021/07/14 15:47:29;;;;;;;0.35;0.35;;;;;;;21.95;64.07;101271.84;5031104;28;20126;-89
2021/07/14 15:49:56;;;;;;;2.75;1.40;;;;;;;21.98;63.96;101281.56;5032598;28;20052;-87
2021/07/14 15:52:22;;;;;;;0.90;0.90;;;;;;;22.06;63.72;101273.03;5033531;28;20033;-89
2021/07/14 15:54:48;;;;;;;0.35;0.35;;;;;;;21.79;64.33;101274.63;5033473;28;20022;-86
2021/07/14 15:57:14;;;;;;;1.23;1.08;;;;;;;22.19;63.24;101270.41;5033895;28;20025;-86
2021/07/14 15:59:41;;;;;;;0.85;0.85;;;;;;;22.18;63.31;101268.69;5034108;28;20109;-87
2021/07/14 16:02:07;;;;;;;3.47;0.75;;;;;;;22.02;63.80;101276.84;5032476;28;20064;-87
2021/07/14 16:04:33;;;;;;;0.15;0.15;;;;;;;22.14;63.44;101266.19;5032013;28;20315;-87
2021/07/14 16:07:00;;;;;;;1.00;1.00;;;;;;;21.92;63.84;101273.84;5033291;28;20113;-87
2021/07/14 16:09:26;;;;;;;0.73;0.73;;;;;;;22.37;62.69;101273.78;5033208;28;20025;-88
2021/07/14 16:11:52;;;;;;;0.20;0.20;;;;;;;22.53;62.45;101277.31;5032505;28;20029;-88
2021/07/14 16:14:19;;;;;;;0.60;0.60;;;;;;;22.31;62.58;101275.06;5033028;28;20030;-88
2021/07/14 16:16:45;;;;;;;0.28;0.28;;;;;;;22.69;61.98;101276.31;5032444;28;20488;-91
2021/07/14 16:19:11;;;;;;;0.93;0.93;;;;;;;22.62;62.15;101260.50;5032957;28;20034;-87
2021/07/14 16:21:38;;;;;;;1.65;1.45;;;;;;;22.68;61.76;101261.06;5031389;28;20539;-88
2021/07/14 16:24:05;;;;;;;0.95;0.95;;;;;;;22.62;61.74;101252.38;5032771;28;20029;-89
2021/07/14 16:26:31;;;;;;;0.20;0.20;;;;;;;22.74;61.75;101252.56;5032788;28;20477;-87
2021/07/14 16:28:58;;;;;;;0.20;0.20;;;;;;;23.02;61.23;101256.19;5032597;28;20030;-88
2021/07/14 16:31:24;;;;;;;1.00;0.95;;;;;;;23.01;61.15;101249.03;5032733;28;20112;-88
2021/07/14 16:33:50;;;;;;;0.73;0.73;;;;;;;22.82;61.69;101252.06;5032006;28;20045;-87
2021/07/14 16:36:17;;;;;;;0.10;0.10;;;;;;;22.58;62.25;101248.16;5032461;28;20503;-88
2021/07/14 16:38:43;;;;;;;3.40;1.00;;;;;;;22.86;61.61;101240.97;5033140;28;20032;-88
2021/07/14 16:41:09;;;;;;;0.05;0.05;;;;;;;22.83;61.67;101241.16;5032861;28;20468;-88
2021/07/14 16:43:35;;;;;;;0.95;0.95;;;;;;;22.88;61.53;101239.03;5032347;28;20499;-88
2021/07/14 16:46:01;;;;;;;0.40;0.40;;;;;;;22.92;61.67;101251.34;5031584;28;20488;-88
2021/07/14 16:48:29;;;;;;;0.20;0.20;;;;;;;22.71;62.07;101248.22;5031440;28;20029;-87
2021/07/14 16:50:56;;;;;;;0.38;0.38;;;;;;;22.74;62.01;101237.25;5031675;28;20034;-88
2021/07/14 16:53:22;;;;;;;0.47;0.32;;;;;;;22.61;62.48;101242.56;5031466;28;20048;-88
2021/07/14 16:55:48;;;;;;;0.55;0.55;;;;;;;22.70;62.41;101241.09;5031764;28;20029;-89
2021/07/14 16:58:14;;;;;;;1.65;1.17;;;;;;;22.56;63.02;101254.63;5030884;28;20090;-88
2021/07/14 17:00:41;;;;;;;0.70;0.70;;;;;;;22.39;63.79;101248.50;5030600;28;20025;-87
2021/07/14 17:03:08;;;;;;;0.28;0.28;;;;;;;22.41;63.73;101251.94;5031249;28;20036;-87
2021/07/14 17:05:34;;;;;;;0.10;0.10;;;;;;;22.71;62.65;101252.78;5029177;28;20519;-84
2021/07/14 17:08:02;;;;;;;2.67;1.95;;;;;;;22.55;63.15;101251.03;5028393;28;20041;-84
2021/07/14 17:10:29;;;;;;;8.77;3.03;;;;;;;22.61;62.84;101252.50;5029840;28;20041;-87
2021/07/14 17:13:03;;;;;;;0.95;0.95;;;;;;;22.55;63.09;101259.16;5033530;28;20038;-85
2021/07/14 17:15:29;;;;;;;10.05;1.63;;;;;;;22.32;64.05;101257.91;5029220;28;20029;-88
2021/07/14 17:18:01;;;;;;;0.73;0.73;;;;;;;22.48;63.70;101249.72;5028471;28;20103;-91
2021/07/14 17:20:27;;;;;;;;;;;;;;;22.55;63.23;101258.28;5030598;28;20103;-87
2021/07/14 17:22:53;;;;;;;5.43;3.50;;;;;;;22.29;64.27;101258.97;5031814;28;19913;-90
2021/07/14 17:25:22;;;;;;;0.75;0.75;;;;;;;22.42;63.63;101258.22;5030737;28;20032;-89
2021/07/14 17:27:48;;;;;;;0.43;0.43;;;;;;;22.43;63.73;101273.44;5029265;28;20113;-89
2021/07/14 17:30:19;;;;;;;0.20;0.20;;;;;;;22.33;63.89;101269.56;5031440;28;20055;-91
2021/07/14 17:32:48;;;;;;;1.05;0.95;;;;;;;22.30;64.07;101260.66;5031482;28;20059;-90
2021/07/14 17:35:14;;;;;;;2.63;0.80;;;;;;;22.30;64.00;101260.66;5031330;28;20017;-90
2021/07/14 17:37:41;;;;;;;0.82;0.70;;;;;;;22.25;64.54;101256.53;5031166;28;20034;-90
2021/07/14 17:40:08;;;;;;;0.35;0.35;;;;;;;22.20;64.53;101264.91;5028639;28;20125;-89
2021/07/14 17:42:37;;;;;;;1.13;0.73;;;;;;;22.13;64.97;101236.56;5029865;28;20033;-89
2021/07/14 17:45:05;;;;;;;0.40;0.40;;;;;;;22.16;64.78;101241.78;5031183;28;20359;-92
2021/07/14 17:47:31;;;;;;;0.30;0.30;;;;;;;22.26;64.52;101242.94;5031039;28;20445;-90
2021/07/14 17:49:58;;;;;;;0.68;0.68;;;;;;;22.41;64.05;101256.47;5031147;28;20044;-90
2021/07/14 17:52:27;;;;;;;0.20;0.20;;;;;;;22.40;64.10;101249.34;5031087;28;20393;-91
2021/07/14 17:54:53;;;;;;;1.65;1.55;;;;;;;22.38;64.23;101249.44;5029343;28;20044;-89
2021/07/14 17:57:22;;;;;;;0.10;0.10;;;;;;;22.44;64.07;101242.78;5030355;28;20033;-89
2021/07/14 17:59:52;;;;;;;11.18;1.60;;;;;;;22.22;65.04;101248.63;5029977;28;20049;-88
2021/07/14 18:02:19;;;;;;;15.98;1.10;;;;;;;22.35;64.58;101237.94;5031230;28;20669;-93
2021/07/14 18:04:46;;;;;;;1.88;0.52;;;;;;;22.02;65.52;101239.06;5030551;28;20037;-88
2021/07/14 18:14:00;;;;;;;0.10;0.10;;;;;;;22.26;65.00;101237.53;5036836;28;20080;-92
2021/07/14 18:21:37;;;;;;;8.57;1.35;;;;;;;22.14;65.19;101244.59;4944141;28;20864;-91
2021/07/14 18:23:16;;;;;;;0.75;0.75;;;;;;;22.35;64.69;101256.84;4966384;28;20403;-91
2021/07/14 18:36:13;;;;;;;0.55;0.55;;;;;;;22.16;65.00;101258.00;5751848;22;20057;-93
2021/07/14 18:38:57;;;;;;;0.85;0.85;;;;;;;22.11;65.03;101250.16;4998546;28;20129;-90
2021/07/14 18:42:00;;;;;;;0.70;0.65;;;;;;;22.12;65.18;101249.22;5002855;28;20700;-89
2021/07/14 18:44:42;;;;;;;0.45;0.45;;;;;;;22.05;65.47;101250.56;4998415;28;20042;-89
2021/07/14 18:47:32;;;;;;;0.22;0.22;;;;;;;22.08;65.22;101244.09;5007719;28;20121;-90
2021/07/14 18:50:18;;;;;;;0.47;0.47;;;;;;;22.08;65.38;101254.88;5107110;23;20086;-91
2021/07/14 18:52:48;;;;;;;0.25;0.25;;;;;;;21.98;65.63;101244.69;5045239;28;20120;-89
2021/07/14 18:55:18;;;;;;;1.65;0.82;;;;;;;21.99;65.60;101242.84;5047400;28;20061;-90
2021/07/14 18:57:56;;;;;;;0.68;0.68;;;;;;;22.05;65.30;101249.69;5049834;28;20036;-90
2021/07/14 19:00:26;;;;;;;0.75;0.75;;;;;;;21.79;65.99;101255.75;5043777;28;20503;-89
2021/07/14 19:03:00;;;;;;;0.20;0.20;;;;;;;21.74;66.04;101262.38;5044727;28;20439;-90
2021/07/14 19:06:11;;;;;;;4.93;2.15;;;;;;;21.67;66.52;101255.59;5042245;28;20180;-92
2021/07/14 19:08:40;;;;;;;5.22;0.98;;;;;;;21.52;66.88;101263.63;5029365;28;20049;-90
2021/07/14 19:11:06;;;;;;;3.85;1.58;;;;;;;21.72;65.89;101258.88;5027887;28;20462;-90
2021/07/14 19:22:24;;;;;;;1.10;1.00;;;;;;;21.51;66.97;101275.38;5062795;22;20104;-90
2021/07/14 19:24:59;;;;;;;0.73;0.73;;;;;;;21.60;66.70;101269.44;5009146;28;20027;-91
2021/07/14 19:27:47;;;;;;;;;;;;;;;;;;;;;
2021/07/14 19:35:32;;;;;;;;;;;;;;;;;;;;;
2021/07/14 19:46:25;;;;;;;0.57;0.57;;;;;;;21.46;67.78;101275.63;5295971;23;20084;-90
2021/07/14 19:51:40;;;;;;;1.23;1.02;;;;;;;21.37;67.99;101281.59;5093861;22;19944;-88
2021/07/14 19:54:19;;;;;;;3.40;1.13;;;;;;;21.47;67.87;101287.28;5008255;28;20469;-90
2021/07/14 19:56:49;;;;;;;0.90;0.90;;;;;;;21.40;68.04;101286.78;5007626;28;20025;-90
2021/07/14 19:59:30;;;;;;;1.05;0.95;;;;;;;21.17;68.93;101289.00;5001337;28;20037;-87
2021/07/14 20:02:31;;;;;;;0.28;0.28;;;;;;;21.57;67.40;101293.91;5033079;22;20123;-91
2021/07/14 20:04:57;;;;;;;0.20;0.20;;;;;;;21.53;67.86;101303.09;5026316;28;20026;-92
2021/07/14 20:07:24;;;;;;;3.47;2.55;;;;;;;21.48;67.88;101326.75;5021167;28;20101;-93
2021/07/14 20:09:50;;;;;;;0.70;0.70;;;;;;;21.33;68.87;101321.31;5016629;28;20160;-93
2021/07/14 20:12:21;;;;;;;0.20;0.20;;;;;;;21.45;68.00;101326.94;5024095;28;20025;-92
2021/07/14 20:14:55;;;;;;;5.57;0.95;;;;;;;21.28;69.15;101328.81;5025454;28;20104;-91
2021/07/14 20:17:25;;;;;;;3.72;2.00;;;;;;;21.27;69.17;101324.38;5014557;28;20022;-90
2021/07/14 20:19:52;;;;;;;1.55;1.00;;;;;;;21.37;68.88;101335.50;5014229;28;20022;-94
2021/07/14 20:22:21;;;;;;;1.23;1.13;;;;;;;21.33;69.43;101329.41;5016202;28;20566;-89
2021/07/14 20:25:02;;;;;;;0.60;0.60;;;;;;;21.33;69.55;101337.50;5020321;28;20037;-89
2021/07/14 20:27:28;;;;;;;0.30;0.30;;;;;;;21.43;68.77;101351.31;5028684;28;20022;-92
2021/07/14 20:30:27;;;;;;;1.65;1.55;;;;;;;21.50;68.93;101349.13;5014974;28;20065;-93
2021/07/14 20:32:53;;;;;;;0.65;0.65;;;;;;;21.26;70.13;101348.69;5129384;22;20072;-88
2021/07/14 20:35:20;;;;;;;0.20;0.20;;;;;;;21.48;69.06;101348.31;5026129;28;20066;-94
2021/07/14 20:38:11;;;;;;;5.28;3.78;;;;;;;21.68;68.30;101349.03;5028111;28;20052;-91
2021/07/14 20:40:38;;;;;;;1.90;1.77;;;;;;;21.55;68.86;101355.09;5015293;28;20403;-92
2021/07/14 20:43:06;;;;;;;1.17;1.10;;;;;;;21.47;69.13;101358.25;5003646;28;20030;-93
2021/07/14 20:45:35;;;;;;;2.38;1.63;;;;;;;21.46;69.44;101358.34;5004433;28;20026;-92
2021/07/14 20:48:02;;;;;;;3.65;2.42;;;;;;;21.36;69.76;101365.19;5007882;28;20028;-90
2021/07/14 20:50:42;;;;;;;1.73;1.35;;;;;;;21.57;68.87;101364.00;5003572;28;20031;-90
2021/07/14 20:53:12;;;;;;;0.10;0.10;;;;;;;21.57;69.02;101361.31;5005137;28;20022;-92
2021/07/14 20:56:05;;;;;;;1.80;1.70;;;;;;;21.57;69.02;101366.72;5006583;28;20046;-91
2021/07/14 20:58:38;;;;;;;1.20;1.20;;;;;;;21.68;68.51;101365.19;5000645;28;20050;-90
2021/07/14 21:01:05;;;;;;;1.63;1.58;;;;;;;21.56;68.94;101366.78;5011761;28;20041;-90
2021/07/14 21:04:24;;;;;;;1.23;1.23;;;;;;;21.59;68.98;101364.78;4999022;28;20065;-92
2021/07/14 21:09:27;;;;;;;2.17;2.08;;;;;;;21.48;69.13;101365.38;5657432;23;20048;-88
2021/07/14 21:11:53;;;;;;;0.75;0.75;;;;;;;21.62;68.75;101367.31;5053408;28;20043;-89
2021/07/14 21:14:19;;;;;;;0.65;0.65;;;;;;;21.60;68.68;101369.22;5050156;28;20017;-88
2021/07/14 21:16:48;;;;;;;3.10;2.83;;;;;;;21.73;68.50;101373.88;5043399;28;20090;-92
2021/07/14 21:19:43;;;;;;;1.55;1.05;;;;;;;21.73;68.64;101379.28;5059634;28;20081;-96
2021/07/14 21:22:09;;;;;;;13.45;1.58;;;;;;;21.60;68.78;101374.59;5032617;28;20069;-91
2021/07/14 21:24:36;;;;;;;1.63;1.52;;;;;;;21.67;68.70;101380.53;5049994;28;20076;-93
2021/07/14 21:27:03;;;;;;;1.30;0.77;;;;;;;21.78;68.23;101372.69;5049570;28;20037;-86
2021/07/14 21:33:21;;;;;;;;;;;;;;;;;;;;;
2021/07/14 21:35:56;;;;;;;0.65;0.65;;;;;;;21.67;68.46;101374.25;4994017;28;20055;-85
2021/07/14 21:38:25;;;;;;;2.33;2.22;;;;;;;21.81;68.06;101382.41;5048162;28;20078;-89
2021/07/14 21:40:51;;;;;;;1.02;0.95;;;;;;;21.58;68.99;101381.94;5040084;28;20025;-90
2021/07/14 21:43:18;;;;;;;5.22;4.22;;;;;;;21.73;68.22;101377.47;5037158;28;20052;-91
2021/07/14 21:45:45;;;;;;;3.80;2.17;;;;;;;21.43;69.47;101389.03;5046373;28;20120;-91